createdAt,value
2023-08-19T00:03:27.035Z,100340.73
2023-08-19T00:13:32.789Z,100339.98
2023-08-19T00:23:38.651Z,100333.52
2023-08-19T00:33:42.413Z,100333.73
2023-08-19T00:43:47.789Z,100338.33
2023-08-19T00:53:54.347Z,100339.24
2023-08-19T01:03:59.193Z,100332.45
2023-08-19T01:14:12.181Z,100332.63
2023-08-19T01:24:23.258Z,100331.23
2023-08-19T01:34:27.348Z,100331.25
2023-08-19T01:44:32.801Z,100321.91
2023-08-19T01:54:36.465Z,100316.20
2023-08-19T02:04:41.958Z,100311.09
2023-08-19T02:14:47.125Z,100310.30
2023-08-19T02:24:50.924Z,100308.20
2023-08-19T02:34:54.712Z,100314.46
2023-08-19T02:45:01.126Z,100322.00
2023-08-19T02:55:06.073Z,100320.70
2023-08-19T03:05:11.721Z,100315.39
2023-08-19T03:15:15.508Z,100309.92
2023-08-19T03:25:19.270Z,100308.41
2023-08-19T03:35:24.863Z,100301.45
2023-08-19T03:45:28.676Z,100294.95
2023-08-19T03:55:32.567Z,100300.63
2023-08-19T04:05:36.497Z,100307.45
2023-08-19T04:15:40.660Z,100309.72
2023-08-19T04:25:48.663Z,100303.12
2023-08-19T04:35:52.724Z,100306.44
2023-08-19T04:45:59.454Z,100305.20
2023-08-19T04:56:05.640Z,100312.03
2023-08-19T05:06:16.485Z,100316.08
2023-08-19T05:16:22.147Z,100325.48
2023-08-19T05:26:26.277Z,100328.31
2023-08-19T05:36:31.669Z,100326.39
2023-08-19T05:46:35.717Z,100326.25
2023-08-19T05:56:39.787Z,100331.70
2023-08-19T06:06:43.717Z,100337.17
2023-08-19T06:16:53.095Z,100347.80
2023-08-19T06:26:58.718Z,100353.19
2023-08-19T06:37:06.747Z,100366.17
2023-08-19T06:47:14.924Z,100385.23
2023-08-19T06:57:37.978Z,100394.77
2023-08-19T07:07:53.105Z,100404.48
2023-08-19T07:18:02.426Z,100399.16
2023-08-19T07:28:16.818Z,100406.21
2023-08-19T07:38:21.608Z,100403.95
2023-08-19T07:48:26.862Z,100401.46
2023-08-19T07:58:30.618Z,100402.05
2023-08-19T08:08:34.379Z,100401.44
2023-08-19T08:18:42.776Z,100395.02
2023-08-19T08:28:46.816Z,100389.54
2023-08-19T08:38:50.477Z,100391.06
2023-08-19T08:48:57.417Z,100386.90
2023-08-19T08:59:01.153Z,100383.11
2023-08-19T09:09:10.497Z,100379.32
2023-08-19T09:19:15.717Z,100367.00
2023-08-19T09:29:20.949Z,100363.02
2023-08-19T09:39:34.040Z,100366.16
2023-08-19T09:49:38.731Z,100367.73
2023-08-19T09:59:42.640Z,100358.48
2023-08-19T10:09:46.409Z,100350.12
2023-08-19T10:20:02.935Z,100344.56
2023-08-19T10:30:26.406Z,100349.05
2023-08-19T10:40:33.653Z,100345.48
2023-08-19T10:50:39.039Z,100344.54
2023-08-19T11:00:47.066Z,100340.98
2023-08-19T11:10:52.091Z,100333.54
2023-08-19T11:20:56.136Z,100324.94
2023-08-19T11:31:01.938Z,100321.64
2023-08-19T11:41:06.015Z,100315.04
2023-08-19T11:51:18.302Z,100308.11
2023-08-19T12:01:24.892Z,100309.20
2023-08-19T12:11:34.791Z,100308.11
2023-08-19T12:21:39.912Z,100299.42
2023-08-19T12:31:45.604Z,100295.85
2023-08-19T12:41:49.434Z,100290.44
2023-08-19T12:51:53.151Z,100287.13
2023-08-19T13:01:58.226Z,100285.52
2023-08-19T13:12:04.636Z,100271.94
2023-08-19T13:22:08.912Z,100272.16
2023-08-19T13:32:13.602Z,100268.70
2023-08-19T13:42:17.473Z,100269.64
2023-08-19T13:52:48.644Z,100265.63
2023-08-19T14:02:52.370Z,100273.01
2023-08-19T14:12:56.897Z,100272.08
2023-08-19T14:23:01.722Z,100274.11
2023-08-19T14:33:06.254Z,100275.61
2023-08-19T14:43:10.369Z,100268.04
2023-08-19T14:53:14.265Z,100260.98
2023-08-19T15:03:19.138Z,100269.99
2023-08-19T15:13:23.717Z,100267.39
2023-08-19T15:23:31.706Z,100264.77
2023-08-19T15:33:43.932Z,100259.08
2023-08-19T15:43:47.608Z,100257.90
2023-08-19T15:53:53.959Z,100258.84
2023-08-19T16:04:01.181Z,100263.60
2023-08-19T16:14:06.056Z,100268.58
2023-08-19T16:24:09.851Z,100277.75
2023-08-19T16:34:13.534Z,100277.78
2023-08-19T16:44:17.912Z,100279.38
2023-08-19T16:54:22.829Z,100273.43
2023-08-19T17:04:27.056Z,100272.27
2023-08-19T17:14:36.989Z,100282.32
2023-08-19T17:24:40.705Z,100278.77
2023-08-19T17:34:46.341Z,100272.91
2023-08-19T17:44:54.892Z,100272.59
2023-08-19T17:55:02.457Z,100288.54
2023-08-19T18:05:06.839Z,100292.30
2023-08-19T18:15:14.792Z,100302.08
2023-08-19T18:25:18.543Z,100298.83
2023-08-19T18:35:23.846Z,100309.82
2023-08-19T18:45:28.875Z,100316.74
2023-08-19T18:55:36.568Z,100323.50
2023-08-19T19:05:40.944Z,100333.02
2023-08-19T19:15:44.980Z,100340.40
2023-08-19T19:25:48.752Z,100350.18
2023-08-19T19:35:56.924Z,100348.80
2023-08-19T19:46:01.441Z,100339.41
2023-08-19T19:56:06.905Z,100337.23
2023-08-19T20:06:11.869Z,100339.48
2023-08-19T20:16:20.593Z,100336.42
2023-08-19T20:26:27.275Z,100325.56
2023-08-19T20:36:34.852Z,100319.79
2023-08-19T20:46:42.440Z,100318.16
2023-08-19T20:56:49.742Z,100322.62
2023-08-19T21:06:53.424Z,100323.35
2023-08-19T21:17:01.987Z,100316.52
2023-08-19T21:27:08.859Z,100320.81
2023-08-19T21:37:14.528Z,100323.28
2023-08-19T21:47:18.221Z,100328.85
2023-08-19T21:57:21.935Z,100326.20
2023-08-19T22:07:25.625Z,100323.59
2023-08-19T22:17:30.988Z,100326.69
2023-08-19T22:27:35.651Z,100329.15
2023-08-19T22:37:39.785Z,100329.19
2023-08-19T22:47:47.772Z,100330.77
2023-08-19T22:57:51.904Z,100335.23
2023-08-19T23:07:55.981Z,100336.40
2023-08-19T23:18:01.546Z,100325.82
2023-08-19T23:28:05.702Z,100320.46
2023-08-19T23:38:10.013Z,100321.18
2023-08-19T23:48:14.411Z,100313.31
2023-08-19T23:58:21.138Z,100303.19
